sensor_id;sensor_type;location;lat;lon;timestamp;P1;durP1;ratioP1;P2;durP2;ratioP2
37559;SDS011;23398;50.928;7.084;2022-10-15T00:00:45;4.15;;;2.17;;
37559;SDS011;23398;50.928;7.084;2022-10-15T00:03:11;1.83;;;1.73;;
37559;SDS011;23398;50.928;7.084;2022-10-15T00:05:38;2.33;;;1.88;;
37559;SDS011;23398;50.928;7.084;2022-10-15T00:08:04;2.10;;;2.00;;
37559;SDS011;23398;50.928;7.084;2022-10-15T00:10:31;2.65;;;2.22;;
37559;SDS011;23398;50.928;7.084;2022-10-15T00:12:57;2.55;;;2.20;;
37559;SDS011;23398;50.928;7.084;2022-10-15T00:15:22;2.50;;;2.30;;
37559;SDS011;23398;50.928;7.084;2022-10-15T00:17:48;2.17;;;2.08;;
37559;SDS011;23398;50.928;7.084;2022-10-15T00:20:14;1.95;;;1.85;;
37559;SDS011;23398;50.928;7.084;2022-10-15T00:22:39;2.30;;;2.10;;
37559;SDS011;23398;50.928;7.084;2022-10-15T00:25:05;2.38;;;2.08;;
37559;SDS011;23398;50.928;7.084;2022-10-15T00:27:32;5.25;;;3.05;;
37559;SDS011;23398;50.928;7.084;2022-10-15T00:29:58;13.27;;;4.68;;
37559;SDS011;23398;50.928;7.084;2022-10-15T00:32:25;2.88;;;2.22;;
37559;SDS011;23398;50.928;7.084;2022-10-15T00:34:51;2.40;;;2.10;;
37559;SDS011;23398;50.928;7.084;2022-10-15T00:37:16;3.80;;;2.38;;
37559;SDS011;23398;50.928;7.084;2022-10-15T00:39:42;2.65;;;2.28;;
37559;SDS011;23398;50.928;7.084;2022-10-15T00:42:08;2.42;;;2.15;;
37559;SDS011;23398;50.928;7.084;2022-10-15T00:45:08;2.47;;;2.28;;
37559;SDS011;23398;50.928;7.084;2022-10-15T00:50:06;2.47;;;2.28;;
37559;SDS011;23398;50.928;7.084;2022-10-15T00:52:38;2.78;;;2.42;;
37559;SDS011;23398;50.928;7.084;2022-10-15T00:55:27;2.97;;;2.17;;
37559;SDS011;23398;50.928;7.084;2022-10-15T00:57:56;2.72;;;2.40;;
37559;SDS011;23398;50.928;7.084;2022-10-15T01:00:24;2.67;;;2.40;;
37559;SDS011;23398;50.928;7.084;2022-10-15T01:02:50;2.80;;;2.30;;
37559;SDS011;23398;50.928;7.084;2022-10-15T01:05:16;2.70;;;2.40;;
37559;SDS011;23398;50.928;7.084;2022-10-15T01:07:43;2.72;;;2.38;;
37559;SDS011;23398;50.928;7.084;2022-10-15T01:10:09;3.30;;;2.38;;
37559;SDS011;23398;50.928;7.084;2022-10-15T01:18:38;2.75;;;2.05;;
37559;SDS011;23398;50.928;7.084;2022-10-15T01:21:03;2.20;;;2.00;;
37559;SDS011;23398;50.928;7.084;2022-10-15T01:27:16;3.13;;;2.10;;
37559;SDS011;23398;50.928;7.084;2022-10-15T01:32:51;4.90;;;1.70;;
37559;SDS011;23398;50.928;7.084;2022-10-15T01:35:33;2.13;;;1.92;;
37559;SDS011;23398;50.928;7.084;2022-10-15T01:38:15;3.28;;;2.03;;
37559;SDS011;23398;50.928;7.084;2022-10-15T01:40:57;2.35;;;2.15;;
37559;SDS011;23398;50.928;7.084;2022-10-15T01:43:38;2.42;;;2.22;;
37559;SDS011;23398;50.928;7.084;2022-10-15T01:46:19;2.35;;;2.15;;
37559;SDS011;23398;50.928;7.084;2022-10-15T01:48:49;2.80;;;1.48;;
37559;SDS011;23398;50.928;7.084;2022-10-15T01:51:20;1.63;;;1.52;;
37559;SDS011;23398;50.928;7.084;2022-10-15T01:53:48;1.70;;;1.60;;
37559;SDS011;23398;50.928;7.084;2022-10-15T01:56:17;2.55;;;1.65;;
37559;SDS011;23398;50.928;7.084;2022-10-15T01:58:46;1.95;;;1.70;;
37559;SDS011;23398;50.928;7.084;2022-10-15T02:01:14;1.90;;;1.70;;
37559;SDS011;23398;50.928;7.084;2022-10-15T02:03:43;1.98;;;1.77;;
37559;SDS011;23398;50.928;7.084;2022-10-15T02:06:12;1.42;;;1.33;;
37559;SDS011;23398;50.928;7.084;2022-10-15T02:08:57;9.27;;;1.40;;
37559;SDS011;23398;50.928;7.084;2022-10-15T02:11:24;3.30;;;1.80;;
37559;SDS011;23398;50.928;7.084;2022-10-15T02:13:59;1.90;;;1.65;;
37559;SDS011;23398;50.928;7.084;2022-10-15T02:19:25;2.50;;;2.15;;
37559;SDS011;23398;50.928;7.084;2022-10-15T02:27:22;2.40;;;2.10;;
37559;SDS011;23398;50.928;7.084;2022-10-15T02:29:49;3.00;;;2.17;;
37559;SDS011;23398;50.928;7.084;2022-10-15T02:32:18;3.72;;;2.20;;
37559;SDS011;23398;50.928;7.084;2022-10-15T02:34:45;2.13;;;1.92;;
37559;SDS011;23398;50.928;7.084;2022-10-15T02:37:12;3.45;;;2.08;;
37559;SDS011;23398;50.928;7.084;2022-10-15T02:39:38;4.28;;;2.25;;
37559;SDS011;23398;50.928;7.084;2022-10-15T02:42:04;4.57;;;2.13;;
37559;SDS011;23398;50.928;7.084;2022-10-15T02:44:30;2.20;;;2.00;;
37559;SDS011;23398;50.928;7.084;2022-10-15T02:46:56;2.65;;;2.28;;
37559;SDS011;23398;50.928;7.084;2022-10-15T02:49:23;2.38;;;2.17;;
37559;SDS011;23398;50.928;7.084;2022-10-15T02:51:48;3.97;;;2.22;;
37559;SDS011;23398;50.928;7.084;2022-10-15T02:54:14;2.40;;;2.20;;
37559;SDS011;23398;50.928;7.084;2022-10-15T02:56:39;2.35;;;1.92;;
37559;SDS011;23398;50.928;7.084;2022-10-15T02:59:05;3.45;;;2.10;;
37559;SDS011;23398;50.928;7.084;2022-10-15T03:01:31;2.05;;;1.85;;
37559;SDS011;23398;50.928;7.084;2022-10-15T03:03:57;2.28;;;1.80;;
37559;SDS011;23398;50.928;7.084;2022-10-15T03:06:23;2.45;;;2.10;;
37559;SDS011;23398;50.928;7.084;2022-10-15T03:08:49;1.85;;;1.65;;
37559;SDS011;23398;50.928;7.084;2022-10-15T03:11:14;2.10;;;1.90;;
37559;SDS011;23398;50.928;7.084;2022-10-15T03:13:40;1.92;;;1.75;;
37559;SDS011;23398;50.928;7.084;2022-10-15T03:16:06;2.75;;;2.10;;
37559;SDS011;23398;50.928;7.084;2022-10-15T03:18:33;1.98;;;1.83;;
37559;SDS011;23398;50.928;7.084;2022-10-15T03:20:59;2.42;;;1.83;;
37559;SDS011;23398;50.928;7.084;2022-10-15T03:23:25;3.08;;;1.77;;
37559;SDS011;23398;50.928;7.084;2022-10-15T03:25:51;2.00;;;1.80;;
37559;SDS011;23398;50.928;7.084;2022-10-15T03:28:18;2.33;;;1.98;;
37559;SDS011;23398;50.928;7.084;2022-10-15T03:30:44;2.10;;;1.90;;
37559;SDS011;23398;50.928;7.084;2022-10-15T03:33:10;2.20;;;2.00;;
37559;SDS011;23398;50.928;7.084;2022-10-15T03:35:35;2.28;;;2.03;;
37559;SDS011;23398;50.928;7.084;2022-10-15T03:38:03;4.03;;;2.10;;
37559;SDS011;23398;50.928;7.084;2022-10-15T03:40:29;4.07;;;1.77;;
37559;SDS011;23398;50.928;7.084;2022-10-15T03:42:55;4.38;;;2.33;;
37559;SDS011;23398;50.928;7.084;2022-10-15T03:45:21;2.38;;;2.17;;
37559;SDS011;23398;50.928;7.084;2022-10-15T03:47:47;3.13;;;2.13;;
37559;SDS011;23398;50.928;7.084;2022-10-15T03:50:12;2.75;;;2.08;;
37559;SDS011;23398;50.928;7.084;2022-10-15T03:52:38;3.90;;;2.08;;
37559;SDS011;23398;50.928;7.084;2022-10-15T03:55:04;4.20;;;2.50;;
37559;SDS011;23398;50.928;7.084;2022-10-15T03:57:30;3.50;;;2.42;;
37559;SDS011;23398;50.928;7.084;2022-10-15T03:59:56;3.00;;;2.40;;
37559;SDS011;23398;50.928;7.084;2022-10-15T04:02:22;4.13;;;2.00;;
37559;SDS011;23398;50.928;7.084;2022-10-15T04:04:51;4.65;;;2.78;;
37559;SDS011;23398;50.928;7.084;2022-10-15T04:07:18;3.17;;;1.90;;
37559;SDS011;23398;50.928;7.084;2022-10-15T04:09:44;3.80;;;2.50;;
37559;SDS011;23398;50.928;7.084;2022-10-15T04:12:10;2.95;;;2.67;;
37559;SDS011;23398;50.928;7.084;2022-10-15T04:14:35;2.90;;;2.60;;
37559;SDS011;23398;50.928;7.084;2022-10-15T04:17:00;3.67;;;3.00;;
37559;SDS011;23398;50.928;7.084;2022-10-15T04:19:26;4.88;;;3.05;;
37559;SDS011;23398;50.928;7.084;2022-10-15T04:21:52;3.40;;;3.10;;
37559;SDS011;23398;50.928;7.084;2022-10-15T04:24:17;5.03;;;3.40;;
37559;SDS011;23398;50.928;7.084;2022-10-15T04:26:43;3.88;;;3.15;;
37559;SDS011;23398;50.928;7.084;2022-10-15T04:29:08;4.85;;;3.67;;
37559;SDS011;23398;50.928;7.084;2022-10-15T04:31:34;3.85;;;3.42;;
37559;SDS011;23398;50.928;7.084;2022-10-15T04:34:01;5.07;;;3.20;;
37559;SDS011;23398;50.928;7.084;2022-10-15T04:36:27;4.32;;;3.15;;
37559;SDS011;23398;50.928;7.084;2022-10-15T04:38:53;3.22;;;2.92;;
37559;SDS011;23398;50.928;7.084;2022-10-15T04:41:18;2.95;;;2.58;;
37559;SDS011;23398;50.928;7.084;2022-10-15T04:43:44;3.13;;;2.80;;
37559;SDS011;23398;50.928;7.084;2022-10-15T04:46:09;3.55;;;3.25;;
37559;SDS011;23398;50.928;7.084;2022-10-15T04:48:36;4.40;;;3.00;;
37559;SDS011;23398;50.928;7.084;2022-10-15T04:51:09;4.25;;;3.22;;
37559;SDS011;23398;50.928;7.084;2022-10-15T04:53:38;4.18;;;3.45;;
37559;SDS011;23398;50.928;7.084;2022-10-15T04:56:05;4.95;;;3.25;;
37559;SDS011;23398;50.928;7.084;2022-10-15T04:58:32;3.38;;;3.08;;
37559;SDS011;23398;50.928;7.084;2022-10-15T05:01:00;4.10;;;3.20;;
37559;SDS011;23398;50.928;7.084;2022-10-15T05:03:31;3.53;;;3.00;;
37559;SDS011;23398;50.928;7.084;2022-10-15T05:06:01;4.40;;;3.25;;
37559;SDS011;23398;50.928;7.084;2022-10-15T05:08:29;4.03;;;3.60;;
37559;SDS011;23398;50.928;7.084;2022-10-15T05:10:58;4.15;;;3.80;;
37559;SDS011;23398;50.928;7.084;2022-10-15T05:13:26;3.80;;;3.42;;
37559;SDS011;23398;50.928;7.084;2022-10-15T05:15:51;3.75;;;3.22;;
37559;SDS011;23398;50.928;7.084;2022-10-15T05:18:17;4.43;;;3.45;;
37559;SDS011;23398;50.928;7.084;2022-10-15T05:20:42;3.78;;;3.40;;
37559;SDS011;23398;50.928;7.084;2022-10-15T05:23:08;3.92;;;3.40;;
37559;SDS011;23398;50.928;7.084;2022-10-15T05:25:33;3.58;;;3.28;;
37559;SDS011;23398;50.928;7.084;2022-10-15T05:27:59;3.25;;;2.95;;
37559;SDS011;23398;50.928;7.084;2022-10-15T05:30:24;3.80;;;3.25;;
37559;SDS011;23398;50.928;7.084;2022-10-15T05:32:51;3.65;;;2.95;;
37559;SDS011;23398;50.928;7.084;2022-10-15T05:35:17;3.45;;;3.15;;
37559;SDS011;23398;50.928;7.084;2022-10-15T05:37:43;3.10;;;2.78;;
37559;SDS011;23398;50.928;7.084;2022-10-15T05:40:08;3.38;;;3.08;;
37559;SDS011;23398;50.928;7.084;2022-10-15T05:42:34;4.90;;;3.17;;
37559;SDS011;23398;50.928;7.084;2022-10-15T05:45:00;5.00;;;2.83;;
37559;SDS011;23398;50.928;7.084;2022-10-15T05:47:25;2.83;;;2.63;;
37559;SDS011;23398;50.928;7.084;2022-10-15T05:49:51;4.15;;;3.10;;
37559;SDS011;23398;50.928;7.084;2022-10-15T05:52:17;3.47;;;2.67;;
37559;SDS011;23398;50.928;7.084;2022-10-15T05:54:42;3.67;;;2.65;;
37559;SDS011;23398;50.928;7.084;2022-10-15T05:57:08;2.80;;;2.60;;
37559;SDS011;23398;50.928;7.084;2022-10-15T05:59:33;3.10;;;2.80;;
37559;SDS011;23398;50.928;7.084;2022-10-15T06:01:59;4.07;;;2.60;;
37559;SDS011;23398;50.928;7.084;2022-10-15T06:04:24;2.83;;;2.55;;
37559;SDS011;23398;50.928;7.084;2022-10-15T06:06:50;3.60;;;2.70;;
37559;SDS011;23398;50.928;7.084;2022-10-15T06:09:15;2.90;;;2.63;;
37559;SDS011;23398;50.928;7.084;2022-10-15T06:11:41;2.88;;;2.30;;
37559;SDS011;23398;50.928;7.084;2022-10-15T06:14:07;4.40;;;2.53;;
37559;SDS011;23398;50.928;7.084;2022-10-15T06:16:32;4.18;;;2.60;;
37559;SDS011;23398;50.928;7.084;2022-10-15T06:18:58;3.47;;;2.45;;
37559;SDS011;23398;50.928;7.084;2022-10-15T06:21:23;2.75;;;2.42;;
37559;SDS011;23398;50.928;7.084;2022-10-15T06:23:49;3.92;;;2.50;;
37559;SDS011;23398;50.928;7.084;2022-10-15T06:26:15;2.65;;;2.40;;
37559;SDS011;23398;50.928;7.084;2022-10-15T06:28:40;3.05;;;2.55;;
37559;SDS011;23398;50.928;7.084;2022-10-15T06:31:06;3.53;;;2.45;;
37559;SDS011;23398;50.928;7.084;2022-10-15T06:33:32;2.80;;;2.50;;
37559;SDS011;23398;50.928;7.084;2022-10-15T06:36:04;3.10;;;2.67;;
37559;SDS011;23398;50.928;7.084;2022-10-15T06:38:31;3.05;;;2.20;;
37559;SDS011;23398;50.928;7.084;2022-10-15T06:40:57;2.97;;;2.67;;
37559;SDS011;23398;50.928;7.084;2022-10-15T06:43:23;4.43;;;2.90;;
37559;SDS011;23398;50.928;7.084;2022-10-15T06:45:48;2.90;;;2.58;;
37559;SDS011;23398;50.928;7.084;2022-10-15T06:48:14;2.60;;;2.38;;
37559;SDS011;23398;50.928;7.084;2022-10-15T06:50:40;4.72;;;2.60;;
37559;SDS011;23398;50.928;7.084;2022-10-15T06:53:05;2.83;;;2.60;;
37559;SDS011;23398;50.928;7.084;2022-10-15T06:55:31;2.55;;;2.35;;
37559;SDS011;23398;50.928;7.084;2022-10-15T06:57:58;2.63;;;2.42;;
37559;SDS011;23398;50.928;7.084;2022-10-15T07:00:24;2.60;;;2.38;;
37559;SDS011;23398;50.928;7.084;2022-10-15T07:02:50;2.40;;;2.20;;
37559;SDS011;23398;50.928;7.084;2022-10-15T07:05:16;4.18;;;2.47;;
37559;SDS011;23398;50.928;7.084;2022-10-15T07:07:42;3.75;;;2.40;;
37559;SDS011;23398;50.928;7.084;2022-10-15T07:10:14;4.25;;;2.42;;
37559;SDS011;23398;50.928;7.084;2022-10-15T07:12:40;2.40;;;2.20;;
37559;SDS011;23398;50.928;7.084;2022-10-15T07:15:05;2.10;;;1.90;;
37559;SDS011;23398;50.928;7.084;2022-10-15T07:17:31;2.45;;;2.25;;
37559;SDS011;23398;50.928;7.084;2022-10-15T07:19:59;2.50;;;2.05;;
37559;SDS011;23398;50.928;7.084;2022-10-15T07:22:24;2.15;;;1.95;;
37559;SDS011;23398;50.928;7.084;2022-10-15T07:24:50;2.13;;;1.92;;
37559;SDS011;23398;50.928;7.084;2022-10-15T07:27:15;2.30;;;1.80;;
37559;SDS011;23398;50.928;7.084;2022-10-15T07:29:41;2.20;;;2.00;;
37559;SDS011;23398;50.928;7.084;2022-10-15T07:32:06;2.00;;;1.77;;
37559;SDS011;23398;50.928;7.084;2022-10-15T07:34:32;1.98;;;1.80;;
37559;SDS011;23398;50.928;7.084;2022-10-15T07:36:57;2.28;;;1.98;;
37559;SDS011;23398;50.928;7.084;2022-10-15T07:39:23;2.88;;;1.50;;
37559;SDS011;23398;50.928;7.084;2022-10-15T07:41:48;3.10;;;1.70;;
37559;SDS011;23398;50.928;7.084;2022-10-15T07:44:14;1.70;;;1.60;;
37559;SDS011;23398;50.928;7.084;2022-10-15T07:46:40;2.25;;;1.50;;
37559;SDS011;23398;50.928;7.084;2022-10-15T07:49:05;2.00;;;1.40;;
37559;SDS011;23398;50.928;7.084;2022-10-15T07:51:31;2.63;;;1.60;;
37559;SDS011;23398;50.928;7.084;2022-10-15T07:53:56;3.03;;;1.73;;
37559;SDS011;23398;50.928;7.084;2022-10-15T07:56:22;1.85;;;1.50;;
37559;SDS011;23398;50.928;7.084;2022-10-15T07:58:48;2.00;;;1.40;;
37559;SDS011;23398;50.928;7.084;2022-10-15T08:01:16;1.30;;;1.20;;
37559;SDS011;23398;50.928;7.084;2022-10-15T08:03:42;2.20;;;1.33;;
37559;SDS011;23398;50.928;7.084;2022-10-15T08:06:08;1.55;;;1.20;;
37559;SDS011;23398;50.928;7.084;2022-10-15T08:08:34;1.23;;;1.00;;
37559;SDS011;23398;50.928;7.084;2022-10-15T08:11:04;1.23;;;0.95;;
37559;SDS011;23398;50.928;7.084;2022-10-15T08:13:33;1.55;;;1.20;;
37559;SDS011;23398;50.928;7.084;2022-10-15T08:15:59;1.23;;;1.08;;
37559;SDS011;23398;50.928;7.084;2022-10-15T08:18:24;1.63;;;1.08;;
37559;SDS011;23398;50.928;7.084;2022-10-15T08:20:50;1.15;;;1.00;;
37559;SDS011;23398;50.928;7.084;2022-10-15T08:23:16;1.23;;;1.13;;
37559;SDS011;23398;50.928;7.084;2022-10-15T08:25:43;0.80;;;0.80;;
37559;SDS011;23398;50.928;7.084;2022-10-15T08:28:08;1.83;;;0.90;;
37559;SDS011;23398;50.928;7.084;2022-10-15T08:30:35;2.55;;;0.90;;
37559;SDS011;23398;50.928;7.084;2022-10-15T08:33:00;1.33;;;0.90;;
37559;SDS011;23398;50.928;7.084;2022-10-15T08:35:26;0.80;;;0.80;;
37559;SDS011;23398;50.928;7.084;2022-10-15T08:37:52;1.00;;;0.90;;
37559;SDS011;23398;50.928;7.084;2022-10-15T08:40:18;0.80;;;0.80;;
37559;SDS011;23398;50.928;7.084;2022-10-15T08:42:46;0.90;;;0.70;;
37559;SDS011;23398;50.928;7.084;2022-10-15T08:45:14;1.08;;;0.80;;
37559;SDS011;23398;50.928;7.084;2022-10-15T08:47:44;2.13;;;0.90;;
37559;SDS011;23398;50.928;7.084;2022-10-15T08:50:24;0.70;;;0.70;;
37559;SDS011;23398;50.928;7.084;2022-10-15T08:53:13;1.55;;;0.95;;
37559;SDS011;23398;50.928;7.084;2022-10-15T08:55:43;0.60;;;0.60;;
37559;SDS011;23398;50.928;7.084;2022-10-15T08:58:14;1.10;;;1.00;;
37559;SDS011;23398;50.928;7.084;2022-10-15T09:01:03;1.33;;;0.80;;
37559;SDS011;23398;50.928;7.084;2022-10-15T09:06:27;0.73;;;0.73;;
37559;SDS011;23398;50.928;7.084;2022-10-15T09:09:02;1.92;;;0.70;;
37559;SDS011;23398;50.928;7.084;2022-10-15T09:14:27;0.75;;;0.75;;
37559;SDS011;23398;50.928;7.084;2022-10-15T09:16:55;0.73;;;0.73;;
37559;SDS011;23398;50.928;7.084;2022-10-15T09:19:27;0.90;;;0.77;;
37559;SDS011;23398;50.928;7.084;2022-10-15T09:21:53;0.70;;;0.70;;
37559;SDS011;23398;50.928;7.084;2022-10-15T09:26:55;0.70;;;0.70;;
37559;SDS011;23398;50.928;7.084;2022-10-15T09:34:47;0.98;;;0.68;;
37559;SDS011;23398;50.928;7.084;2022-10-15T09:37:31;1.02;;;0.70;;
37559;SDS011;23398;50.928;7.084;2022-10-15T09:43:20;1.55;;;0.70;;
37559;SDS011;23398;50.928;7.084;2022-10-15T09:45:52;0.80;;;0.80;;
37559;SDS011;23398;50.928;7.084;2022-10-15T09:48:18;0.73;;;0.73;;
37559;SDS011;23398;50.928;7.084;2022-10-15T09:50:49;0.80;;;0.80;;
37559;SDS011;23398;50.928;7.084;2022-10-15T09:56:17;1.00;;;0.77;;
37559;SDS011;23398;50.928;7.084;2022-10-15T09:58:56;1.23;;;0.90;;
37559;SDS011;23398;50.928;7.084;2022-10-15T10:01:30;1.45;;;0.80;;
37559;SDS011;23398;50.928;7.084;2022-10-15T10:09:31;0.80;;;0.80;;
37559;SDS011;23398;50.928;7.084;2022-10-15T10:12:03;1.30;;;0.80;;
37559;SDS011;23398;50.928;7.084;2022-10-15T10:14:35;1.30;;;0.90;;
37559;SDS011;23398;50.928;7.084;2022-10-15T10:17:06;0.80;;;0.80;;
37559;SDS011;23398;50.928;7.084;2022-10-15T10:19:40;1.90;;;0.90;;
37559;SDS011;23398;50.928;7.084;2022-10-15T10:22:17;1.23;;;0.70;;
37559;SDS011;23398;50.928;7.084;2022-10-15T10:24:46;0.70;;;0.70;;
37559;SDS011;23398;50.928;7.084;2022-10-15T10:27:19;0.80;;;0.80;;
37559;SDS011;23398;50.928;7.084;2022-10-15T10:29:58;0.70;;;0.70;;
37559;SDS011;23398;50.928;7.084;2022-10-15T10:32:27;0.60;;;0.60;;
37559;SDS011;23398;50.928;7.084;2022-10-15T10:34:55;0.77;;;0.63;;
37559;SDS011;23398;50.928;7.084;2022-10-15T10:37:22;2.05;;;0.75;;
37559;SDS011;23398;50.928;7.084;2022-10-15T10:39:53;1.15;;;0.80;;
37559;SDS011;23398;50.928;7.084;2022-10-15T10:42:24;0.60;;;0.50;;
37559;SDS011;23398;50.928;7.084;2022-10-15T10:44:54;0.60;;;0.60;;
37559;SDS011;23398;50.928;7.084;2022-10-15T10:47:30;0.75;;;0.70;;
37559;SDS011;23398;50.928;7.084;2022-10-15T10:50:02;0.50;;;0.50;;
37559;SDS011;23398;50.928;7.084;2022-10-15T10:52:56;0.70;;;0.60;;
37559;SDS011;23398;50.928;7.084;2022-10-15T10:55:24;0.73;;;0.50;;
37559;SDS011;23398;50.928;7.084;2022-10-15T10:58:01;0.60;;;0.60;;
37559;SDS011;23398;50.928;7.084;2022-10-15T11:03:05;0.60;;;0.60;;
37559;SDS011;23398;50.928;7.084;2022-10-15T11:05:53;0.60;;;0.60;;
37559;SDS011;23398;50.928;7.084;2022-10-15T11:08:40;1.48;;;0.70;;
37559;SDS011;23398;50.928;7.084;2022-10-15T11:14:06;1.52;;;0.52;;
37559;SDS011;23398;50.928;7.084;2022-10-15T11:19:42;0.63;;;0.60;;
37559;SDS011;23398;50.928;7.084;2022-10-15T11:30:10;0.75;;;0.70;;
37559;SDS011;23398;50.928;7.084;2022-10-15T11:32:58;0.82;;;0.70;;
37559;SDS011;23398;50.928;7.084;2022-10-15T11:35:45;1.30;;;0.50;;
37559;SDS011;23398;50.928;7.084;2022-10-15T11:41:04;0.73;;;0.73;;
37559;SDS011;23398;50.928;7.084;2022-10-15T11:54:30;1.20;;;0.60;;
37559;SDS011;23398;50.928;7.084;2022-10-15T11:57:03;0.75;;;0.60;;
37559;SDS011;23398;50.928;7.084;2022-10-15T12:02:32;0.50;;;0.50;;
37559;SDS011;23398;50.928;7.084;2022-10-15T12:07:27;1.38;;;0.70;;
37559;SDS011;23398;50.928;7.084;2022-10-15T12:12:42;0.63;;;0.63;;
37559;SDS011;23398;50.928;7.084;2022-10-15T12:20:43;0.60;;;0.60;;
37559;SDS011;23398;50.928;7.084;2022-10-15T12:23:23;0.52;;;0.50;;
37559;SDS011;23398;50.928;7.084;2022-10-15T12:28:49;0.65;;;0.63;;
37559;SDS011;23398;50.928;7.084;2022-10-15T12:31:17;0.60;;;0.60;;
37559;SDS011;23398;50.928;7.084;2022-10-15T12:36:26;0.60;;;0.60;;
37559;SDS011;23398;50.928;7.084;2022-10-15T12:38:58;1.05;;;0.70;;
37559;SDS011;23398;50.928;7.084;2022-10-15T12:41:39;0.40;;;0.40;;
37559;SDS011;23398;50.928;7.084;2022-10-15T12:44:10;0.40;;;0.40;;
37559;SDS011;23398;50.928;7.084;2022-10-15T12:47:04;0.52;;;0.52;;
37559;SDS011;23398;50.928;7.084;2022-10-15T12:51:57;0.60;;;0.60;;
37559;SDS011;23398;50.928;7.084;2022-10-15T12:54:40;0.60;;;0.60;;
37559;SDS011;23398;50.928;7.084;2022-10-15T12:59:54;0.70;;;0.70;;
37559;SDS011;23398;50.928;7.084;2022-10-15T13:02:38;0.50;;;0.50;;
37559;SDS011;23398;50.928;7.084;2022-10-15T13:05:06;0.50;;;0.50;;
37559;SDS011;23398;50.928;7.084;2022-10-15T13:07:48;0.52;;;0.52;;
37559;SDS011;23398;50.928;7.084;2022-10-15T13:10:18;0.65;;;0.55;;
37559;SDS011;23398;50.928;7.084;2022-10-15T13:12:51;0.40;;;0.40;;
37559;SDS011;23398;50.928;7.084;2022-10-15T13:15:19;0.43;;;0.43;;
37559;SDS011;23398;50.928;7.084;2022-10-15T13:17:47;0.68;;;0.47;;
37559;SDS011;23398;50.928;7.084;2022-10-15T13:20:33;0.40;;;0.40;;
37559;SDS011;23398;50.928;7.084;2022-10-15T13:23:18;0.45;;;0.45;;
37559;SDS011;23398;50.928;7.084;2022-10-15T13:25:45;0.45;;;0.45;;
37559;SDS011;23398;50.928;7.084;2022-10-15T13:28:26;0.50;;;0.50;;
37559;SDS011;23398;50.928;7.084;2022-10-15T13:30:57;0.50;;;0.50;;
37559;SDS011;23398;50.928;7.084;2022-10-15T13:33:26;0.40;;;0.40;;
37559;SDS011;23398;50.928;7.084;2022-10-15T13:35:52;0.60;;;0.60;;
37559;SDS011;23398;50.928;7.084;2022-10-15T13:38:19;0.95;;;0.50;;
37559;SDS011;23398;50.928;7.084;2022-10-15T13:40:47;0.50;;;0.50;;
37559;SDS011;23398;50.928;7.084;2022-10-15T13:43:16;0.47;;;0.47;;
37559;SDS011;23398;50.928;7.084;2022-10-15T13:45:52;0.50;;;0.50;;
37559;SDS011;23398;50.928;7.084;2022-10-15T13:48:23;2.53;;;0.40;;
37559;SDS011;23398;50.928;7.084;2022-10-15T13:50:55;0.55;;;0.55;;
37559;SDS011;23398;50.928;7.084;2022-10-15T13:53:30;0.77;;;0.50;;
37559;SDS011;23398;50.928;7.084;2022-10-15T13:55:59;0.93;;;0.55;;
37559;SDS011;23398;50.928;7.084;2022-10-15T13:58:30;0.82;;;0.50;;
37559;SDS011;23398;50.928;7.084;2022-10-15T14:00:59;0.60;;;0.45;;
37559;SDS011;23398;50.928;7.084;2022-10-15T14:03:28;0.68;;;0.68;;
37559;SDS011;23398;50.928;7.084;2022-10-15T14:06:08;0.50;;;0.50;;
37559;SDS011;23398;50.928;7.084;2022-10-15T14:08:56;1.15;;;0.50;;
37559;SDS011;23398;50.928;7.084;2022-10-15T14:11:35;0.50;;;0.50;;
37559;SDS011;23398;50.928;7.084;2022-10-15T14:14:03;0.60;;;0.60;;
37559;SDS011;23398;50.928;7.084;2022-10-15T14:16:34;0.60;;;0.60;;
37559;SDS011;23398;50.928;7.084;2022-10-15T14:21:31;0.68;;;0.68;;
37559;SDS011;23398;50.928;7.084;2022-10-15T14:24:32;0.88;;;0.50;;
37559;SDS011;23398;50.928;7.084;2022-10-15T14:27:01;0.50;;;0.50;;
37559;SDS011;23398;50.928;7.084;2022-10-15T14:29:50;1.77;;;0.73;;
37559;SDS011;23398;50.928;7.084;2022-10-15T14:32:22;1.00;;;0.60;;
37559;SDS011;23398;50.928;7.084;2022-10-15T14:35:20;0.50;;;0.50;;
37559;SDS011;23398;50.928;7.084;2022-10-15T14:37:57;0.65;;;0.60;;
37559;SDS011;23398;50.928;7.084;2022-10-15T14:40:27;0.60;;;0.60;;
37559;SDS011;23398;50.928;7.084;2022-10-15T14:45:23;0.70;;;0.65;;
37559;SDS011;23398;50.928;7.084;2022-10-15T14:47:55;0.90;;;0.70;;
37559;SDS011;23398;50.928;7.084;2022-10-15T14:50:24;1.15;;;0.70;;
37559;SDS011;23398;50.928;7.084;2022-10-15T14:52:53;0.88;;;0.70;;
37559;SDS011;23398;50.928;7.084;2022-10-15T14:57:48;0.88;;;0.57;;
37559;SDS011;23398;50.928;7.084;2022-10-15T15:00:19;0.70;;;0.70;;
37559;SDS011;23398;50.928;7.084;2022-10-15T15:02:58;0.60;;;0.60;;
37559;SDS011;23398;50.928;7.084;2022-10-15T15:05:26;0.65;;;0.65;;
37559;SDS011;23398;50.928;7.084;2022-10-15T15:07:53;0.90;;;0.70;;
37559;SDS011;23398;50.928;7.084;2022-10-15T15:10:21;0.80;;;0.70;;
37559;SDS011;23398;50.928;7.084;2022-10-15T15:12:51;1.02;;;0.80;;
37559;SDS011;23398;50.928;7.084;2022-10-15T15:15:19;0.93;;;0.70;;
37559;SDS011;23398;50.928;7.084;2022-10-15T15:17:47;0.70;;;0.60;;
37559;SDS011;23398;50.928;7.084;2022-10-15T15:20:13;0.52;;;0.52;;
37559;SDS011;23398;50.928;7.084;2022-10-15T15:22:40;0.57;;;0.57;;
37559;SDS011;23398;50.928;7.084;2022-10-15T15:25:13;0.60;;;0.60;;
37559;SDS011;23398;50.928;7.084;2022-10-15T15:27:43;0.60;;;0.60;;
37559;SDS011;23398;50.928;7.084;2022-10-15T15:30:13;0.60;;;0.60;;
37559;SDS011;23398;50.928;7.084;2022-10-15T15:32:41;2.50;;;1.00;;
37559;SDS011;23398;50.928;7.084;2022-10-15T15:35:15;3.33;;;1.10;;
37559;SDS011;23398;50.928;7.084;2022-10-15T15:37:54;0.57;;;0.55;;
37559;SDS011;23398;50.928;7.084;2022-10-15T15:40:20;1.30;;;0.75;;
37559;SDS011;23398;50.928;7.084;2022-10-15T15:42:46;1.55;;;0.60;;
37559;SDS011;23398;50.928;7.084;2022-10-15T15:45:20;0.70;;;0.50;;
37559;SDS011;23398;50.928;7.084;2022-10-15T15:47:47;2.58;;;0.50;;
37559;SDS011;23398;50.928;7.084;2022-10-15T15:50:13;0.75;;;0.63;;
37559;SDS011;23398;50.928;7.084;2022-10-15T15:52:39;0.55;;;0.50;;
37559;SDS011;23398;50.928;7.084;2022-10-15T15:55:05;0.57;;;0.52;;
37559;SDS011;23398;50.928;7.084;2022-10-15T15:57:31;1.10;;;0.80;;
37559;SDS011;23398;50.928;7.084;2022-10-15T15:59:57;0.70;;;0.70;;
37559;SDS011;23398;50.928;7.084;2022-10-15T16:02:23;1.20;;;0.82;;
37559;SDS011;23398;50.928;7.084;2022-10-15T16:04:48;1.30;;;0.80;;
37559;SDS011;23398;50.928;7.084;2022-10-15T16:07:14;0.73;;;0.70;;
37559;SDS011;23398;50.928;7.084;2022-10-15T16:09:39;1.52;;;0.80;;
37559;SDS011;23398;50.928;7.084;2022-10-15T16:12:05;1.33;;;0.82;;
37559;SDS011;23398;50.928;7.084;2022-10-15T16:14:31;2.40;;;1.10;;
37559;SDS011;23398;50.928;7.084;2022-10-15T16:16:57;1.33;;;0.90;;
37559;SDS011;23398;50.928;7.084;2022-10-15T16:19:22;1.23;;;0.88;;
37559;SDS011;23398;50.928;7.084;2022-10-15T16:21:49;1.98;;;1.13;;
37559;SDS011;23398;50.928;7.084;2022-10-15T16:24:15;1.17;;;1.00;;
37559;SDS011;23398;50.928;7.084;2022-10-15T16:26:40;1.10;;;0.98;;
37559;SDS011;23398;50.928;7.084;2022-10-15T16:29:06;1.58;;;0.80;;
37559;SDS011;23398;50.928;7.084;2022-10-15T16:31:31;1.08;;;1.00;;
37559;SDS011;23398;50.928;7.084;2022-10-15T16:34:00;1.45;;;1.10;;
37559;SDS011;23398;50.928;7.084;2022-10-15T16:36:29;2.60;;;0.90;;
37559;SDS011;23398;50.928;7.084;2022-10-15T16:38:55;1.15;;;0.90;;
37559;SDS011;23398;50.928;7.084;2022-10-15T16:41:21;2.13;;;1.10;;
37559;SDS011;23398;50.928;7.084;2022-10-15T16:43:47;2.13;;;0.95;;
37559;SDS011;23398;50.928;7.084;2022-10-15T16:46:14;1.45;;;0.90;;
37559;SDS011;23398;50.928;7.084;2022-10-15T16:48:41;2.28;;;1.00;;
37559;SDS011;23398;50.928;7.084;2022-10-15T16:51:11;2.50;;;0.90;;